createdAt,value
2023-10-24T00:00:26.264Z,9.96
2023-10-24T00:02:53.353Z,9.97
2023-10-24T00:05:20.313Z,9.90
2023-10-24T00:07:47.968Z,9.93
2023-10-24T00:10:15.219Z,9.86
2023-10-24T00:12:42.540Z,9.89
2023-10-24T00:15:10.010Z,9.86
2023-10-24T00:17:37.067Z,9.85
2023-10-24T00:20:05.146Z,9.83
2023-10-24T00:22:32.268Z,9.84
2023-10-24T00:24:59.282Z,9.79
2023-10-24T00:27:26.255Z,9.81
2023-10-24T00:29:53.810Z,9.83
2023-10-24T00:32:21.206Z,9.80
2023-10-24T00:34:48.327Z,9.75
2023-10-24T00:37:15.449Z,9.78
2023-10-24T00:39:42.990Z,9.73
2023-10-24T00:42:09.949Z,9.71
2023-10-24T00:44:36.925Z,9.69
2023-10-24T00:47:04.332Z,9.69
2023-10-24T00:49:32.355Z,9.67
2023-10-24T00:52:00.286Z,9.66
2023-10-24T00:54:29.432Z,9.73
2023-10-24T00:56:57.368Z,9.68
2023-10-24T00:59:25.620Z,9.75
2023-10-24T01:01:53.827Z,9.72
2023-10-24T01:04:23.603Z,9.70
2023-10-24T01:06:50.654Z,9.71
2023-10-24T01:09:17.657Z,9.70
2023-10-24T01:11:44.789Z,9.68
2023-10-24T01:14:11.903Z,9.67
2023-10-24T01:16:46.097Z,9.61
2023-10-24T01:19:14.220Z,9.65
2023-10-24T01:21:48.862Z,9.70
2023-10-24T01:24:18.349Z,9.65
2023-10-24T01:26:46.004Z,9.70
2023-10-24T01:29:13.145Z,9.63
2023-10-24T01:31:40.760Z,9.62
2023-10-24T01:34:07.951Z,9.62
2023-10-24T01:36:34.941Z,9.62
2023-10-24T01:39:02.026Z,9.64
2023-10-24T01:41:29.012Z,9.64
2023-10-24T01:43:57.043Z,9.63
2023-10-24T01:46:24.221Z,9.60
2023-10-24T01:48:51.341Z,9.59
2023-10-24T01:51:19.061Z,9.56
2023-10-24T01:53:47.266Z,9.59
2023-10-24T01:56:14.767Z,9.54
2023-10-24T01:58:41.997Z,9.48
2023-10-24T02:01:09.371Z,9.45
2023-10-24T02:03:36.465Z,9.41
2023-10-24T02:06:04.345Z,9.45
2023-10-24T02:08:32.086Z,9.45
2023-10-24T02:10:59.051Z,9.39
2023-10-24T02:13:26.060Z,9.33
2023-10-24T02:15:55.216Z,9.29
2023-10-24T02:18:22.320Z,9.34
2023-10-24T02:20:50.835Z,9.30
2023-10-24T02:23:17.955Z,9.33
2023-10-24T02:25:45.020Z,9.27
2023-10-24T02:28:13.108Z,9.23
2023-10-24T02:30:40.205Z,9.20
2023-10-24T02:33:08.834Z,9.26
2023-10-24T02:35:41.167Z,9.25
2023-10-24T02:38:18.505Z,9.24
2023-10-24T02:40:54.298Z,9.12
2023-10-24T02:43:21.366Z,9.07
2023-10-24T02:45:48.353Z,9.03
2023-10-24T02:48:15.329Z,9.06
2023-10-24T02:50:45.148Z,9.07
2023-10-24T02:53:12.104Z,9.05
2023-10-24T02:55:39.388Z,9.03
2023-10-24T02:58:06.358Z,8.98
2023-10-24T03:00:33.648Z,9.09
2023-10-24T03:03:02.310Z,9.12
2023-10-24T03:05:30.100Z,9.08
2023-10-24T03:07:57.076Z,9.12
2023-10-24T03:10:25.350Z,9.13
2023-10-24T03:12:52.392Z,9.04
2023-10-24T03:15:19.650Z,9.12
2023-10-24T03:17:46.817Z,9.11
2023-10-24T03:20:14.101Z,9.05
2023-10-24T03:22:41.447Z,9.06
2023-10-24T03:25:09.061Z,9.04
2023-10-24T03:27:36.057Z,9.05
2023-10-24T03:30:04.049Z,9.03
2023-10-24T03:32:32.323Z,8.96
2023-10-24T03:35:01.955Z,9.00
2023-10-24T03:37:29.094Z,9.04
2023-10-24T03:39:56.447Z,9.06
2023-10-24T03:42:23.937Z,9.04
2023-10-24T03:44:50.924Z,9.05
2023-10-24T03:47:18.091Z,9.02
2023-10-24T03:49:45.169Z,9.01
2023-10-24T03:52:12.128Z,9.03
2023-10-24T03:54:39.217Z,9.06
2023-10-24T03:57:06.361Z,9.01
2023-10-24T03:59:33.306Z,9.00
2023-10-24T04:02:00.297Z,8.99
2023-10-24T04:04:27.458Z,8.98
2023-10-24T04:06:54.469Z,8.91
2023-10-24T04:09:35.399Z,9.00
2023-10-24T04:12:06.080Z,9.02
2023-10-24T04:14:33.029Z,8.89
2023-10-24T04:17:00.081Z,9.01
2023-10-24T04:19:27.169Z,9.01
2023-10-24T04:21:54.382Z,8.96
2023-10-24T04:24:21.487Z,8.94
2023-10-24T04:26:48.466Z,8.87
2023-10-24T04:29:15.548Z,9.02
2023-10-24T04:31:42.729Z,8.92
2023-10-24T04:34:09.754Z,8.98
2023-10-24T04:36:36.798Z,8.96
2023-10-24T04:39:04.100Z,8.95
2023-10-24T04:41:31.445Z,8.93
2023-10-24T04:43:58.468Z,8.88
2023-10-24T04:46:25.729Z,8.88
2023-10-24T04:48:52.803Z,8.88
2023-10-24T04:51:19.808Z,8.92
2023-10-24T04:53:46.775Z,8.88
2023-10-24T04:56:13.763Z,8.93
2023-10-24T04:58:40.861Z,8.93
2023-10-24T05:01:08.118Z,8.76
2023-10-24T05:03:36.706Z,8.96
2023-10-24T05:06:04.222Z,8.92
2023-10-24T05:08:31.185Z,8.94
2023-10-24T05:10:58.535Z,8.89
2023-10-24T05:13:25.784Z,8.90
2023-10-24T05:15:52.813Z,8.89
2023-10-24T05:18:19.872Z,8.93
2023-10-24T05:20:47.848Z,8.87
2023-10-24T05:23:14.820Z,8.88
2023-10-24T05:25:44.946Z,8.89
2023-10-24T05:28:11.987Z,8.86
2023-10-24T05:30:40.509Z,8.94
2023-10-24T05:33:07.521Z,8.91
2023-10-24T05:35:35.057Z,8.89
2023-10-24T05:38:02.111Z,8.87
2023-10-24T05:40:29.154Z,8.89
2023-10-24T05:42:56.772Z,8.89
2023-10-24T05:45:25.287Z,8.88
2023-10-24T05:47:52.495Z,8.91
2023-10-24T05:50:20.399Z,8.91
2023-10-24T05:52:48.332Z,8.93
2023-10-24T05:55:15.433Z,8.93
2023-10-24T05:57:42.585Z,8.98
2023-10-24T06:00:10.993Z,9.01
2023-10-24T06:02:38.013Z,8.89
2023-10-24T06:05:05.582Z,8.96
2023-10-24T06:07:32.613Z,8.94
2023-10-24T06:09:59.589Z,8.98
2023-10-24T06:12:30.006Z,9.00
2023-10-24T06:14:56.983Z,9.01
2023-10-24T06:17:24.747Z,8.94
2023-10-24T06:19:53.127Z,8.98
2023-10-24T06:22:20.248Z,8.99
2023-10-24T06:24:47.231Z,8.96
2023-10-24T06:27:15.389Z,9.03
2023-10-24T06:29:42.529Z,8.99
2023-10-24T06:32:09.819Z,8.99
2023-10-24T06:34:36.968Z,8.97
2023-10-24T06:37:05.003Z,9.02
2023-10-24T06:39:34.436Z,9.07
2023-10-24T06:42:01.647Z,8.99
2023-10-24T06:44:29.622Z,9.09
2023-10-24T06:46:57.442Z,9.14
2023-10-24T06:49:24.771Z,9.11
2023-10-24T06:51:51.806Z,9.13
2023-10-24T06:54:18.840Z,9.14
2023-10-24T06:56:45.913Z,9.24
2023-10-24T06:59:12.899Z,9.22
2023-10-24T07:01:40.353Z,9.24
2023-10-24T07:04:07.759Z,9.33
2023-10-24T07:06:34.769Z,9.34
2023-10-24T07:09:01.789Z,9.41
2023-10-24T07:11:29.175Z,9.44
2023-10-24T07:13:56.247Z,9.38
2023-10-24T07:16:23.340Z,9.43
2023-10-24T07:18:50.377Z,9.45
2023-10-24T07:21:18.391Z,9.46
2023-10-24T07:23:45.430Z,9.45
2023-10-24T07:26:12.430Z,9.54
2023-10-24T07:28:39.493Z,9.60
2023-10-24T07:31:06.486Z,9.57
2023-10-24T07:33:33.554Z,9.62
2023-10-24T07:36:08.070Z,9.68
2023-10-24T07:38:35.384Z,9.74
2023-10-24T07:41:02.934Z,9.75
2023-10-24T07:43:29.989Z,9.79
2023-10-24T07:45:57.050Z,9.79
2023-10-24T07:48:25.722Z,9.89
2023-10-24T07:50:57.806Z,9.92
2023-10-24T07:53:26.799Z,9.93
2023-10-24T07:55:54.630Z,9.98
2023-10-24T07:58:22.216Z,10.02
2023-10-24T08:00:49.881Z,9.99
2023-10-24T08:03:17.805Z,10.03
2023-10-24T08:05:45.406Z,10.01
2023-10-24T08:08:12.507Z,10.06
2023-10-24T08:10:40.019Z,10.12
2023-10-24T08:13:07.024Z,10.11
2023-10-24T08:15:34.218Z,10.09
2023-10-24T08:18:01.416Z,10.21
2023-10-24T08:20:28.500Z,10.12
2023-10-24T08:22:56.261Z,10.27
2023-10-24T08:25:23.485Z,10.27
2023-10-24T08:27:50.565Z,10.24
2023-10-24T08:30:17.595Z,10.29
2023-10-24T08:32:44.606Z,10.28
2023-10-24T08:35:11.725Z,10.29
2023-10-24T08:37:38.827Z,10.34
2023-10-24T08:40:06.919Z,10.38
2023-10-24T08:42:34.521Z,10.37
2023-10-24T08:45:02.387Z,10.40
2023-10-24T08:47:31.299Z,10.37
2023-10-24T08:50:02.268Z,10.35
2023-10-24T08:52:32.127Z,10.42
2023-10-24T08:55:02.275Z,10.41
2023-10-24T08:57:32.205Z,10.44
2023-10-24T09:00:01.650Z,10.46
2023-10-24T09:02:29.565Z,10.41
2023-10-24T09:04:56.698Z,10.41
2023-10-24T09:07:23.845Z,10.47
2023-10-24T09:09:51.541Z,10.46
2023-10-24T09:12:18.651Z,10.46
2023-10-24T09:14:53.685Z,10.49
2023-10-24T09:17:25.486Z,10.51
2023-10-24T09:20:00.811Z,10.49
2023-10-24T09:22:33.317Z,10.54
2023-10-24T09:25:03.166Z,10.59
2023-10-24T09:27:30.215Z,10.57
2023-10-24T09:29:57.228Z,10.55
2023-10-24T09:32:24.315Z,10.58
2023-10-24T09:34:51.462Z,10.60
2023-10-24T09:37:18.505Z,10.65
2023-10-24T09:40:02.599Z,10.65
2023-10-24T09:42:35.125Z,10.61
2023-10-24T09:45:07.510Z,10.69
2023-10-24T09:47:35.320Z,10.68
2023-10-24T09:50:03.710Z,10.75
2023-10-24T09:52:31.471Z,10.82
2023-10-24T09:55:00.230Z,10.85
2023-10-24T09:57:28.971Z,10.71
2023-10-24T10:00:00.437Z,10.89
2023-10-24T10:02:28.906Z,10.88
2023-10-24T10:04:56.795Z,10.95
2023-10-24T10:07:27.360Z,11.00
2023-10-24T10:09:55.669Z,11.02
2023-10-24T10:12:23.270Z,11.02
2023-10-24T10:15:27.192Z,11.09
2023-10-24T10:18:22.639Z,11.13
2023-10-24T10:21:35.474Z,11.19
2023-10-24T10:24:31.161Z,11.21
2023-10-24T10:27:31.648Z,11.26
2023-10-24T10:30:23.755Z,11.30
2023-10-24T10:33:16.360Z,11.28
2023-10-24T10:36:03.514Z,11.34
2023-10-24T10:38:41.854Z,11.39
2023-10-24T10:41:28.357Z,11.42
2023-10-24T10:44:01.209Z,11.46
2023-10-24T10:46:33.090Z,11.46
2023-10-24T10:49:02.005Z,11.46
2023-10-24T10:51:34.713Z,11.51
2023-10-24T10:54:46.490Z,11.49
2023-10-24T10:57:23.815Z,11.59
2023-10-24T10:59:59.724Z,11.63
2023-10-24T11:03:03.938Z,11.70
2023-10-24T11:05:36.846Z,11.73
2023-10-24T11:08:05.415Z,11.72
2023-10-24T11:10:55.144Z,11.83
2023-10-24T11:13:45.213Z,11.86
2023-10-24T11:16:29.962Z,11.89
2023-10-24T11:18:57.843Z,11.97
2023-10-24T11:21:25.141Z,12.00
2023-10-24T11:23:52.388Z,12.03
2023-10-24T11:26:19.451Z,12.08
2023-10-24T11:28:46.598Z,12.12
2023-10-24T11:31:24.841Z,12.17
2023-10-24T11:33:52.167Z,12.13
2023-10-24T11:36:19.659Z,12.14
2023-10-24T11:38:46.768Z,12.16
2023-10-24T11:41:13.761Z,12.18
2023-10-24T11:43:40.758Z,12.17
2023-10-24T11:46:07.841Z,12.20
2023-10-24T11:48:34.998Z,12.26
2023-10-24T11:51:04.917Z,12.29
2023-10-24T11:53:32.262Z,12.36
2023-10-24T11:55:59.875Z,12.41
2023-10-24T11:58:34.706Z,12.43
2023-10-24T12:01:03.443Z,12.46
2023-10-24T12:03:49.820Z,12.54
2023-10-24T12:06:19.618Z,12.57
2023-10-24T12:08:48.780Z,12.58
2023-10-24T12:11:15.945Z,12.60
2023-10-24T12:13:43.027Z,12.62
2023-10-24T12:16:10.432Z,12.74
2023-10-24T12:18:40.076Z,12.72
2023-10-24T12:21:09.342Z,12.81
2023-10-24T12:23:39.706Z,12.84
2023-10-24T12:26:06.982Z,12.87
2023-10-24T12:28:35.067Z,12.90
2023-10-24T12:31:02.090Z,12.97
2023-10-24T12:33:29.789Z,13.07
2023-10-24T12:36:01.287Z,13.07
2023-10-24T12:38:32.617Z,13.09
2023-10-24T12:40:59.664Z,13.09
2023-10-24T12:43:26.936Z,13.26
2023-10-24T12:45:54.066Z,13.34
2023-10-24T12:48:21.222Z,13.33
2023-10-24T12:50:48.659Z,13.38
2023-10-24T12:53:16.013Z,13.48
2023-10-24T12:55:43.219Z,13.56
2023-10-24T12:58:10.260Z,13.63
2023-10-24T13:00:37.416Z,13.59
2023-10-24T13:03:15.128Z,13.62
2023-10-24T13:05:48.002Z,13.71
2023-10-24T13:08:15.906Z,13.68
2023-10-24T13:10:43.229Z,13.69
2023-10-24T13:13:10.655Z,13.67
2023-10-24T13:15:37.749Z,13.66
2023-10-24T13:18:04.939Z,13.73
2023-10-24T13:20:32.068Z,13.77
2023-10-24T13:22:59.107Z,13.72
2023-10-24T13:25:26.105Z,13.73
2023-10-24T13:27:53.054Z,13.75
2023-10-24T13:30:33.494Z,13.65
2023-10-24T13:33:06.934Z,13.68
2023-10-24T13:38:03.821Z,13.69
2023-10-24T13:40:30.849Z,13.71
2023-10-24T13:42:57.950Z,13.66
2023-10-24T13:45:27.767Z,13.64
2023-10-24T13:47:55.973Z,13.65
2023-10-24T13:50:22.959Z,13.59
2023-10-24T13:52:50.060Z,13.64
2023-10-24T13:55:18.969Z,13.57
2023-10-24T13:57:48.150Z,13.53
2023-10-24T14:00:15.735Z,13.49
2023-10-24T14:02:42.872Z,13.45
2023-10-24T14:05:10.591Z,13.47
2023-10-24T14:07:37.630Z,13.40
2023-10-24T14:10:05.130Z,13.42
2023-10-24T14:12:32.105Z,13.36
2023-10-24T14:14:59.081Z,13.43
2023-10-24T14:17:26.036Z,13.38
2023-10-24T14:19:53.027Z,13.28
2023-10-24T14:22:20.074Z,13.26
2023-10-24T14:24:47.145Z,13.27
2023-10-24T14:27:14.522Z,13.19
2023-10-24T14:29:45.327Z,13.25
2023-10-24T14:32:12.398Z,13.16
2023-10-24T14:34:39.454Z,13.24
2023-10-24T14:37:06.488Z,13.08
2023-10-24T14:39:33.545Z,13.11
2023-10-24T14:42:01.371Z,13.12
2023-10-24T14:44:29.251Z,13.04
2023-10-24T14:46:56.319Z,12.98
2023-10-24T14:49:23.650Z,13.03
2023-10-24T14:51:50.799Z,12.99
2023-10-24T14:54:17.762Z,12.96
2023-10-24T14:56:44.733Z,12.84
2023-10-24T14:59:11.813Z,12.90
2023-10-24T15:01:38.834Z,12.81
2023-10-24T15:04:06.059Z,12.84
2023-10-24T15:06:35.192Z,12.82
2023-10-24T15:09:05.775Z,12.84
2023-10-24T15:11:32.832Z,12.76
2023-10-24T15:14:00.323Z,12.76
2023-10-24T15:16:27.414Z,12.72
2023-10-24T15:18:54.771Z,12.73
2023-10-24T15:21:21.759Z,12.70
2023-10-24T15:23:48.866Z,12.62
2023-10-24T15:26:16.241Z,12.64
2023-10-24T15:28:43.260Z,12.62
2023-10-24T15:31:10.349Z,12.64
2023-10-24T15:33:37.327Z,12.56
2023-10-24T15:36:04.696Z,12.58
2023-10-24T15:38:31.695Z,12.45
2023-10-24T15:40:58.703Z,12.45
2023-10-24T15:43:25.837Z,12.47
2023-10-24T15:46:08.066Z,12.48
2023-10-24T15:48:36.770Z,12.40
2023-10-24T15:51:05.716Z,12.42
2023-10-24T15:53:33.465Z,12.39
2023-10-24T15:56:01.331Z,12.37
2023-10-24T15:58:32.368Z,12.39
2023-10-24T16:00:59.924Z,12.34
2023-10-24T16:03:27.039Z,12.32
2023-10-24T16:05:54.186Z,12.31
2023-10-24T16:08:21.328Z,12.27
2023-10-24T16:10:48.715Z,12.27
2023-10-24T16:13:15.761Z,12.27
2023-10-24T16:15:43.021Z,12.15
2023-10-24T16:18:10.541Z,12.23
2023-10-24T16:20:37.612Z,12.29
2023-10-24T16:23:04.893Z,12.27
2023-10-24T16:25:33.103Z,12.23
2023-10-24T16:28:00.201Z,12.19
2023-10-24T16:30:27.786Z,12.12
2023-10-24T16:32:55.424Z,12.18
2023-10-24T16:35:22.619Z,12.18
2023-10-24T16:37:49.696Z,12.09
2023-10-24T16:40:16.834Z,12.10
2023-10-24T16:42:43.820Z,12.06
2023-10-24T16:45:10.971Z,11.98
2023-10-24T16:47:37.977Z,11.99
2023-10-24T16:50:06.334Z,11.92
2023-10-24T16:52:33.384Z,11.90
2023-10-24T16:55:00.334Z,11.87
2023-10-24T16:57:27.385Z,11.79
2023-10-24T16:59:54.414Z,11.77
2023-10-24T17:02:22.735Z,11.68
2023-10-24T17:04:50.058Z,11.69
2023-10-24T17:07:17.073Z,11.70
2023-10-24T17:09:44.205Z,11.63
2023-10-24T17:12:11.336Z,11.63
2023-10-24T17:14:38.866Z,11.61
2023-10-24T17:17:06.254Z,11.60
2023-10-24T17:19:36.110Z,11.61
2023-10-24T17:22:03.121Z,11.62
2023-10-24T17:24:30.693Z,11.50
2023-10-24T17:26:57.717Z,11.61
2023-10-24T17:29:25.834Z,11.55
2023-10-24T17:31:52.963Z,11.56
2023-10-24T17:34:20.035Z,11.55
2023-10-24T17:36:47.017Z,11.50
2023-10-24T17:39:14.027Z,11.59
2023-10-24T17:41:41.017Z,11.57
2023-10-24T17:44:08.018Z,11.55
2023-10-24T17:46:35.262Z,11.58
2023-10-24T17:49:02.284Z,11.55
2023-10-24T17:51:29.290Z,11.60
2023-10-24T17:53:56.508Z,11.52
2023-10-24T17:56:23.531Z,11.55
2023-10-24T17:58:50.661Z,11.48
2023-10-24T18:01:18.078Z,11.61
2023-10-24T18:03:45.114Z,11.57
2023-10-24T18:06:12.190Z,11.61
2023-10-24T18:08:41.658Z,11.56
2023-10-24T18:11:09.399Z,11.56
2023-10-24T18:13:36.599Z,11.59
2023-10-24T18:16:03.938Z,11.60
2023-10-24T18:18:33.679Z,11.63
2023-10-24T18:21:01.025Z,11.61
2023-10-24T18:23:28.056Z,11.60
2023-10-24T18:25:56.077Z,11.62
2023-10-24T18:28:23.218Z,11.63
2023-10-24T18:30:50.241Z,11.65
2023-10-24T18:33:17.204Z,11.61
2023-10-24T18:35:44.525Z,11.62
2023-10-24T18:38:11.571Z,11.63
2023-10-24T18:40:38.604Z,11.59
2023-10-24T18:43:05.802Z,11.68
2023-10-24T18:45:35.683Z,11.66
2023-10-24T18:48:02.771Z,11.69
2023-10-24T18:50:29.977Z,11.66
2023-10-24T18:52:58.765Z,11.71
2023-10-24T18:55:26.510Z,11.67
2023-10-24T18:57:53.760Z,11.65
2023-10-24T19:00:21.540Z,11.57
2023-10-24T19:05:21.429Z,11.33
2023-10-24T19:07:48.428Z,11.27
2023-10-24T19:10:16.490Z,11.24
2023-10-24T19:12:43.934Z,11.22
2023-10-24T19:15:12.461Z,11.11
2023-10-24T19:17:39.997Z,11.08
2023-10-24T19:20:08.570Z,11.12
2023-10-24T19:22:35.955Z,11.05
2023-10-24T19:25:04.805Z,11.07
2023-10-24T19:27:32.305Z,11.06
2023-10-24T19:29:59.689Z,11.07
2023-10-24T19:32:32.851Z,11.01
2023-10-24T19:35:00.546Z,11.05
2023-10-24T19:37:30.489Z,11.02
2023-10-24T19:39:57.955Z,11.00
2023-10-24T19:42:26.849Z,11.04
2023-10-24T19:44:54.177Z,10.98
2023-10-24T19:47:24.882Z,10.99
2023-10-24T19:49:53.749Z,10.95
2023-10-24T19:52:23.500Z,10.98
2023-10-24T19:54:52.129Z,10.99
2023-10-24T19:57:19.361Z,10.93
2023-10-24T19:59:46.766Z,10.88
2023-10-24T20:02:14.266Z,10.80
2023-10-24T20:04:48.325Z,10.83
2023-10-24T20:07:20.696Z,10.84
2023-10-24T20:11:04.102Z,10.86
2023-10-24T20:12:42.260Z,10.84
2023-10-24T20:15:12.665Z,10.79
2023-10-24T20:17:44.133Z,10.79
2023-10-24T20:20:13.683Z,10.78
2023-10-24T20:22:41.650Z,10.74
2023-10-24T20:25:09.717Z,10.73
2023-10-24T20:27:39.689Z,10.70
2023-10-24T20:30:08.811Z,10.67
2023-10-24T20:32:37.563Z,10.70
2023-10-24T20:35:06.843Z,10.70
2023-10-24T20:37:33.934Z,10.67
2023-10-24T20:40:01.012Z,10.67
2023-10-24T20:42:28.103Z,10.66
2023-10-24T20:44:56.677Z,10.64
2023-10-24T20:47:23.915Z,10.57
2023-10-24T20:49:51.005Z,10.67
2023-10-24T20:52:18.388Z,10.66
2023-10-24T20:54:45.801Z,10.65
2023-10-24T20:57:14.610Z,10.63
2023-10-24T20:59:42.053Z,10.54
2023-10-24T21:02:09.292Z,10.56
2023-10-24T21:04:38.193Z,10.54
2023-10-24T21:07:06.293Z,10.50
2023-10-24T21:09:33.560Z,10.46
2023-10-24T21:12:01.341Z,10.44
2023-10-24T21:14:28.413Z,10.38
2023-10-24T21:16:55.490Z,10.32
2023-10-24T21:19:22.845Z,10.31
2023-10-24T21:21:50.281Z,10.25
2023-10-24T21:24:17.267Z,10.20
2023-10-24T21:26:45.538Z,10.18
2023-10-24T21:29:12.656Z,10.14
2023-10-24T21:31:40.635Z,10.05
2023-10-24T21:34:08.875Z,10.03
2023-10-24T21:36:35.990Z,10.05
2023-10-24T21:39:05.058Z,10.00
2023-10-24T21:41:32.302Z,9.98
2023-10-24T21:43:59.345Z,9.92
2023-10-24T21:46:26.438Z,9.93
2023-10-24T21:48:53.599Z,9.93
2023-10-24T21:51:21.785Z,9.90
2023-10-24T21:53:51.327Z,9.85
2023-10-24T21:56:20.269Z,9.85
2023-10-24T21:58:47.984Z,9.83
2023-10-24T22:01:19.526Z,9.86
2023-10-24T22:03:47.420Z,9.88
2023-10-24T22:06:15.132Z,9.86
2023-10-24T22:08:42.144Z,9.87
2023-10-24T22:11:09.154Z,9.89
2023-10-24T22:13:36.244Z,9.92
2023-10-24T22:16:03.558Z,9.87
2023-10-24T22:18:30.776Z,9.94
2023-10-24T22:20:58.151Z,9.92
2023-10-24T22:23:25.262Z,9.89
2023-10-24T22:25:55.794Z,9.92
2023-10-24T22:28:22.894Z,9.91
2023-10-24T22:30:49.964Z,9.87
2023-10-24T22:33:17.113Z,9.79
2023-10-24T22:35:44.157Z,9.86
2023-10-24T22:38:11.226Z,9.87
2023-10-24T22:40:38.304Z,9.85
2023-10-24T22:43:05.357Z,9.87
2023-10-24T22:45:32.538Z,9.90
2023-10-24T22:47:59.779Z,9.78
2023-10-24T22:50:26.998Z,9.85
2023-10-24T22:52:54.097Z,9.88
2023-10-24T22:55:21.220Z,9.83
2023-10-24T22:57:48.439Z,9.83
2023-10-24T23:00:16.167Z,9.83
2023-10-24T23:02:45.950Z,9.87
2023-10-24T23:05:13.863Z,9.81
2023-10-24T23:07:40.852Z,9.83
2023-10-24T23:10:09.272Z,9.84
2023-10-24T23:12:37.000Z,9.84
2023-10-24T23:15:04.925Z,9.81
2023-10-24T23:17:32.448Z,9.83
2023-10-24T23:19:59.761Z,9.84
2023-10-24T23:22:26.846Z,9.79
2023-10-24T23:24:55.333Z,9.81
2023-10-24T23:27:23.108Z,9.82
2023-10-24T23:29:50.376Z,9.79
2023-10-24T23:32:17.623Z,9.75
2023-10-24T23:34:44.626Z,9.70
2023-10-24T23:37:11.718Z,9.67
2023-10-24T23:39:38.858Z,9.65
2023-10-24T23:42:06.098Z,9.56
2023-10-24T23:44:33.108Z,9.55
2023-10-24T23:47:00.454Z,9.55
2023-10-24T23:49:27.574Z,9.52
2023-10-24T23:51:54.616Z,9.47
2023-10-24T23:54:21.615Z,9.51
2023-10-24T23:56:48.612Z,9.48
2023-10-24T23:59:15.569Z,9.41
